sensor_id;sensor_type;location;lat;lon;timestamp;P1;durP1;ratioP1;P2;durP2;ratioP2
6926;SDS011;3503;50.07605000;8.86719200;2022-12-16T00:08:46;24.97;;;8.57;;
6926;SDS011;3503;50.07605000;8.86719200;2022-12-16T00:23:49;23.10;;;8.13;;
6926;SDS011;3503;50.07605000;8.86719200;2022-12-16T00:38:52;30.93;;;8.40;;
6926;SDS011;3503;50.07605000;8.86719200;2022-12-16T00:53:55;21.17;;;7.57;;
6926;SDS011;3503;50.07605000;8.86719200;2022-12-16T01:08:58;23.50;;;7.07;;
6926;SDS011;3503;50.07605000;8.86719200;2022-12-16T01:24:00;16.43;;;6.83;;
6926;SDS011;3503;50.07605000;8.86719200;2022-12-16T01:39:03;23.50;;;7.70;;
6926;SDS011;3503;50.07605000;8.86719200;2022-12-16T01:54:07;22.73;;;7.77;;
6926;SDS011;3503;50.07605000;8.86719200;2022-12-16T02:09:12;16.97;;;6.73;;
6926;SDS011;3503;50.07605000;8.86719200;2022-12-16T02:24:29;18.57;;;6.80;;
6926;SDS011;3503;50.07605000;8.86719200;2022-12-16T02:39:43;13.90;;;6.13;;
6926;SDS011;3503;50.07605000;8.86719200;2022-12-16T02:54:51;12.63;;;5.80;;
6926;SDS011;3503;50.07605000;8.86719200;2022-12-16T03:09:55;15.30;;;5.10;;
6926;SDS011;3503;50.07605000;8.86719200;2022-12-16T03:25:00;19.30;;;6.03;;
6926;SDS011;3503;50.07605000;8.86719200;2022-12-16T03:40:03;19.40;;;5.53;;
6926;SDS011;3503;50.07605000;8.86719200;2022-12-16T03:55:08;17.07;;;6.83;;
6926;SDS011;3503;50.07605000;8.86719200;2022-12-16T04:10:11;17.63;;;7.13;;
6926;SDS011;3503;50.07605000;8.86719200;2022-12-16T04:25:15;10.80;;;5.27;;
6926;SDS011;3503;50.07605000;8.86719200;2022-12-16T04:40:19;12.27;;;5.57;;
6926;SDS011;3503;50.07605000;8.86719200;2022-12-16T04:55:39;15.27;;;5.60;;
6926;SDS011;3503;50.07605000;8.86719200;2022-12-16T05:10:59;21.67;;;7.27;;
6926;SDS011;3503;50.07605000;8.86719200;2022-12-16T05:26:20;11.97;;;5.13;;
6926;SDS011;3503;50.07605000;8.86719200;2022-12-16T05:41:40;15.10;;;4.93;;
6926;SDS011;3503;50.07605000;8.86719200;2022-12-16T05:57:01;16.13;;;6.83;;
6926;SDS011;3503;50.07605000;8.86719200;2022-12-16T06:12:21;21.03;;;7.03;;
6926;SDS011;3503;50.07605000;8.86719200;2022-12-16T06:27:42;15.97;;;6.00;;
6926;SDS011;3503;50.07605000;8.86719200;2022-12-16T06:43:08;15.07;;;5.27;;
6926;SDS011;3503;50.07605000;8.86719200;2022-12-16T06:58:29;18.17;;;6.70;;
6926;SDS011;3503;50.07605000;8.86719200;2022-12-16T07:13:49;15.30;;;6.47;;
6926;SDS011;3503;50.07605000;8.86719200;2022-12-16T07:29:10;18.73;;;7.17;;
6926;SDS011;3503;50.07605000;8.86719200;2022-12-16T07:44:41;11.00;;;6.30;;
6926;SDS011;3503;50.07605000;8.86719200;2022-12-16T08:00:02;21.97;;;8.13;;
6926;SDS011;3503;50.07605000;8.86719200;2022-12-16T08:15:23;22.53;;;7.63;;
6926;SDS011;3503;50.07605000;8.86719200;2022-12-16T08:30:43;20.30;;;8.07;;
6926;SDS011;3503;50.07605000;8.86719200;2022-12-16T08:46:08;22.30;;;8.20;;
6926;SDS011;3503;50.07605000;8.86719200;2022-12-16T09:01:29;14.30;;;6.10;;
6926;SDS011;3503;50.07605000;8.86719200;2022-12-16T09:16:49;17.77;;;6.43;;
6926;SDS011;3503;50.07605000;8.86719200;2022-12-16T09:32:10;19.60;;;6.70;;
6926;SDS011;3503;50.07605000;8.86719200;2022-12-16T09:47:32;15.27;;;6.20;;
6926;SDS011;3503;50.07605000;8.86719200;2022-12-16T10:02:55;14.47;;;7.13;;
6926;SDS011;3503;50.07605000;8.86719200;2022-12-16T10:18:22;12.40;;;5.47;;
6926;SDS011;3503;50.07605000;8.86719200;2022-12-16T10:33:43;9.10;;;5.63;;
6926;SDS011;3503;50.07605000;8.86719200;2022-12-16T10:49:04;13.43;;;5.93;;
6926;SDS011;3503;50.07605000;8.86719200;2022-12-16T11:04:30;11.40;;;5.47;;
6926;SDS011;3503;50.07605000;8.86719200;2022-12-16T11:20:00;9.63;;;4.40;;
6926;SDS011;3503;50.07605000;8.86719200;2022-12-16T11:35:26;13.80;;;4.43;;
6926;SDS011;3503;50.07605000;8.86719200;2022-12-16T11:50:49;9.07;;;5.00;;
6926;SDS011;3503;50.07605000;8.86719200;2022-12-16T12:06:14;9.07;;;5.50;;
6926;SDS011;3503;50.07605000;8.86719200;2022-12-16T12:21:41;9.17;;;5.30;;
6926;SDS011;3503;50.07605000;8.86719200;2022-12-16T12:37:07;13.73;;;6.10;;
6926;SDS011;3503;50.07605000;8.86719200;2022-12-16T12:52:37;11.70;;;5.17;;
6926;SDS011;3503;50.07605000;8.86719200;2022-12-16T13:24:06;9.37;;;4.80;;
6926;SDS011;3503;50.07605000;8.86719200;2022-12-16T13:39:38;7.73;;;4.00;;
6926;SDS011;3503;50.07605000;8.86719200;2022-12-16T13:55:04;10.70;;;4.80;;
6926;SDS011;3503;50.07605000;8.86719200;2022-12-16T14:10:34;10.63;;;5.63;;
6926;SDS011;3503;50.07605000;8.86719200;2022-12-16T14:25:56;10.50;;;4.87;;
6926;SDS011;3503;50.07605000;8.86719200;2022-12-16T14:41:18;11.87;;;5.17;;
6926;SDS011;3503;50.07605000;8.86719200;2022-12-16T14:56:40;13.53;;;5.30;;
6926;SDS011;3503;50.07605000;8.86719200;2022-12-16T15:12:00;13.50;;;5.93;;
6926;SDS011;3503;50.07605000;8.86719200;2022-12-16T15:27:24;13.93;;;5.80;;
6926;SDS011;3503;50.07605000;8.86719200;2022-12-16T15:42:49;9.43;;;5.63;;
6926;SDS011;3503;50.07605000;8.86719200;2022-12-16T15:58:14;13.10;;;6.77;;
6926;SDS011;3503;50.07605000;8.86719200;2022-12-16T16:13:39;18.40;;;7.50;;
6926;SDS011;3503;50.07605000;8.86719200;2022-12-16T16:28:59;12.90;;;7.03;;
6926;SDS011;3503;50.07605000;8.86719200;2022-12-16T16:44:20;15.67;;;7.40;;
6926;SDS011;3503;50.07605000;8.86719200;2022-12-16T16:59:40;17.23;;;8.50;;
6926;SDS011;3503;50.07605000;8.86719200;2022-12-16T17:15:11;24.17;;;9.50;;
6926;SDS011;3503;50.07605000;8.86719200;2022-12-16T17:30:35;18.13;;;7.90;;
6926;SDS011;3503;50.07605000;8.86719200;2022-12-16T17:45:56;16.37;;;8.90;;
6926;SDS011;3503;50.07605000;8.86719200;2022-12-16T18:01:17;18.70;;;8.63;;
6926;SDS011;3503;50.07605000;8.86719200;2022-12-16T18:16:37;18.77;;;9.00;;
6926;SDS011;3503;50.07605000;8.86719200;2022-12-16T18:31:57;20.33;;;6.80;;
6926;SDS011;3503;50.07605000;8.86719200;2022-12-16T18:47:18;17.90;;;8.90;;
6926;SDS011;3503;50.07605000;8.86719200;2022-12-16T19:02:38;28.97;;;8.47;;
6926;SDS011;3503;50.07605000;8.86719200;2022-12-16T19:17:58;24.57;;;8.00;;
6926;SDS011;3503;50.07605000;8.86719200;2022-12-16T19:33:19;23.40;;;10.20;;
6926;SDS011;3503;50.07605000;8.86719200;2022-12-16T19:48:39;23.47;;;10.00;;
6926;SDS011;3503;50.07605000;8.86719200;2022-12-16T20:04:00;14.10;;;7.20;;
6926;SDS011;3503;50.07605000;8.86719200;2022-12-16T20:19:20;21.30;;;9.70;;
6926;SDS011;3503;50.07605000;8.86719200;2022-12-16T20:34:41;16.73;;;9.40;;
6926;SDS011;3503;50.07605000;8.86719200;2022-12-16T20:50:01;20.70;;;9.23;;
6926;SDS011;3503;50.07605000;8.86719200;2022-12-16T21:05:22;17.63;;;7.60;;
6926;SDS011;3503;50.07605000;8.86719200;2022-12-16T21:20:42;21.20;;;9.57;;
6926;SDS011;3503;50.07605000;8.86719200;2022-12-16T21:36:03;14.67;;;8.00;;
6926;SDS011;3503;50.07605000;8.86719200;2022-12-16T21:51:24;27.70;;;8.60;;
6926;SDS011;3503;50.07605000;8.86719200;2022-12-16T22:06:44;18.80;;;9.03;;
6926;SDS011;3503;50.07605000;8.86719200;2022-12-16T22:22:04;13.60;;;6.60;;
6926;SDS011;3503;50.07605000;8.86719200;2022-12-16T22:37:24;18.10;;;7.30;;
6926;SDS011;3503;50.07605000;8.86719200;2022-12-16T22:52:50;14.70;;;6.30;;
6926;SDS011;3503;50.07605000;8.86719200;2022-12-16T23:08:11;17.93;;;9.00;;
6926;SDS011;3503;50.07605000;8.86719200;2022-12-16T23:23:32;12.60;;;5.73;;
6926;SDS011;3503;50.07605000;8.86719200;2022-12-16T23:38:53;16.07;;;7.23;;
6926;SDS011;3503;50.07605000;8.86719200;2022-12-16T23:54:13;20.30;;;7.37;;
